Terminal Aerodrome Forecast
Issued by NWS

Home | Current Version | Previous Version | Text Only | Print | Product List | Glossary On
Versions: 1 2 3 4 5 6 7 8 9 10 11 12 13 14
000
FTUS46 KSEW 251100
TAFOLM
TAF
KOLM 251120Z 2512/2612 20007KT P6SM OVC017
     FM252300 25005KT P6SM SCT025 OVC050
     FM260500 00000KT P6SM OVC015=

USA.gov is the U.S. government's official web portal to all federal, state and local government web resources and services.